IT-0078 weather

Campo di Volo Prosecco
Trieste, Friuli-Venezia Giulia, Italy

Public forecast

Using degrees Celsius for public forecast. Weather courtesy of forecast.io.

Closest aviation weather report (METAR) to Campo di Volo Prosecco

Closest report is Trieste–Friuli Venezia Giulia Airport, 14.2 nm (26.2 km) WNW. Retrieved 2020/08/06 12:20 UTC (38 minutes ago):

LIPQ 061220Z AUTO 21006KT 180V240 9999 FEW130/// 29/19 Q1016

Closest aviation forecast (TAF) to Campo di Volo Prosecco

Closest forecast is Trieste–Friuli Venezia Giulia Airport, 14.2 nm (26.2 km) WNW. Retrieved 2020/08/06 12:25 UTC (33 minutes ago):

TAF LIPQ 061100Z 0612/0712 06008KT 9999 SCT050